Weather observations for the past three days for
Schenck Field Airport
Imperial (Metric)
Date Time (cdt) Wind (mph) Vis. (mi.) Weather Sky Cond. Temperature (ºF) Relative Humidity Wind Chill (°F) Heat Index (°F) Pressure Precipitation (in)
Air Dwpt 6 hour altimeter (in) sea level (mb) 1 hr 3 hr 6 hr
Max. Min.
30 19:55 S 5 10.00 Fair CLR 84.2 73.4 70% 91 29.81 0.0
30 19:35 S 5 10.00 Fair CLR 86 73.4 66% 93 29.81 0.0
30 19:15 S 7 10.00 Fair CLR 89.6 71.6 55% 96 29.81 0.0
30 18:55 S 6 10.00 Fair CLR 89.6 73.4 59% 98 29.81 0.0
30 18:35 S 9 10.00 Fair CLR 91.4 71.6 52% 99 29.8 0.0
30 18:15 S 10 G 17 10.00 Fair CLR 93.2 71.6 50% 101 29.8 0.0
30 17:55 S 12 10.00 Fair CLR 93.2 71.6 50% 101 29.8 0.0
30 17:35 Calm 10.00 Fair CLR 95 71.6 47% 103 29.8 0.0
30 17:15 S 10 10.00 Fair CLR 95 73.4 50% 105 29.8 0.0
30 16:55 S 10 10.00 Fair CLR 95 73.4 50% 105 29.81 0.0
30 16:35 S 7 10.00 Fair CLR 93.2 73.4 53% 103 29.82 0.0
30 16:15 S 9 10.00 Fair CLR 93.2 73.4 53% 103 29.82 0.0
30 15:55 SW 15 10.00 Fair CLR 93.2 69.8 47% 99 29.82 0.0
30 15:35 SW 20 10.00 Fair CLR 95 69.8 44% 101 29.82 0.0
30 15:15 SW 15 G 22 10.00 Fair CLR 95 69.8 44% 101 29.82 0.0
30 14:55 SW 18 G 28 10.00 Fair CLR 95 68 41% 100 29.82 0.0
30 14:35 S 16 10.00 Fair CLR 95 71.6 47% 103 29.84 0.0
30 14:15 SW 16 10.00 Fair CLR 95 69.8 44% 101 29.84 0.0
30 13:55 S 16 10.00 Fair CLR 93.2 69.8 47% 99 29.84 0.0
30 13:35 S 15 10.00 Fair CLR 93.2 71.6 50% 101 29.85 0.0
30 13:15 S 14 10.00 Fair CLR 91.4 69.8 49% 97 29.86 0.0
30 12:55 S 14 10.00 Fair CLR 93.2 68 44% 98 29.86 0.0
30 12:35 S 10 10.00 Fair CLR 89.6 71.6 55% 96 29.87 0.0
30 12:15 S 10 10.00 Fair CLR 87.8 69.8 55% 93 29.87 0.0
30 11:55 S 12 G 17 10.00 Fair CLR 89.6 69.8 52% 95 29.88 0.0
30 11:35 S 9 G 16 10.00 Fair CLR 87.8 68 52% 91 29.88 0.0
30 11:15 S 8 G 15 10.00 Fair CLR 82.4 68 62% 85 29.88 0.0
30 10:55 S 9 G 15 10.00 Fair CLR 84.2 68 58% 87 29.88 0.0
30 10:35 S 9 10.00 Fair CLR 84.2 68 58% 87 29.87 0.0
30 10:15 S 7 10.00 Fair CLR 80.6 66.2 62% 83 29.88 0.0
30 09:55 S 8 10.00 Fair CLR 78.8 66.2 65% 81 29.87 0.0
30 09:35 S 6 10.00 Fair CLR 77 66.2 69% 79 29.87 0.0
30 09:15 S 5 10.00 Fair CLR 77 66.2 69% 79 29.87 0.0
30 08:55 S 6 10.00 Fair CLR 75.2 66.2 74% 77 29.87 0.0
30 08:35 S 5 10.00 Fair CLR 73.4 66.2 78% 29.87 0.0
30 08:15 SE 3 10.00 Fair CLR 71.6 66.2 83% 29.89 0.0
30 07:55 Calm 10.00 A Few Clouds FEW120 71.6 68 88% 29.89 0.0 0.03
30 07:35 S 3 10.00 A Few Clouds FEW034 FEW055 FEW085 71.6 66.2 83% 29.89 0.0
30 07:15 SE 6 9.00 Mostly Cloudy FEW002 SCT036 BKN060 69.8 68 94% 29.88 0.0
30 06:55 Calm 9.00 Light Drizzle FEW003 SCT065 OVC110 73.4 66.2 78% 29.91 0.0
30 06:35 Calm 10.00 Overcast OVC110 75.2 64.4 69% 77 29.89 0.0
30 06:15 S 8 10.00 Mostly Cloudy BKN110 75.2 64.4 69% 77 29.86 0.0
30 05:55 S 9 10.00 Fair CLR 75.2 64.4 69% 77 29.85 0.0
30 05:35 S 9 10.00 Fair CLR 75.2 64.4 69% 77 29.86 0.0
30 05:15 S 8 10.00 Fair CLR 77 64.4 65% 79 29.87 0.0
30 04:55 S 8 10.00 Fair CLR 75.2 64.4 69% 77 29.87 0.0
30 04:35 S 7 10.00 Fair CLR 75.2 64.4 69% 77 29.87 0.0
30 04:15 S 7 10.00 Fair CLR 75.2 66.2 74% 77 29.87 0.0
30 03:55 S 7 10.00 Fair CLR 75.2 66.2 74% 77 29.87 0.0
30 03:35 S 6 10.00 Fair CLR 75.2 66.2 74% 77 29.87 0.0
30 03:15 S 6 10.00 Fair CLR 73.4 66.2 78% 29.86 0.0
30 02:55 S 6 10.00 Fair CLR 75.2 66.2 74% 77 29.86 0.0
30 02:35 S 6 10.00 Fair CLR 73.4 66.2 78% 29.86 0.0
30 02:15 S 6 10.00 Fair CLR 75.2 66.2 74% 77 29.87 0.0
30 01:55 S 7 10.00 Fair CLR 75.2 66.2 74% 77 29.87 0.0
30 01:35 S 6 10.00 Fair CLR 75.2 66.2 74% 77 29.87 0.0
30 01:15 S 8 10.00 Fair CLR 75.2 66.2 74% 77 29.87 0.0
30 00:55 S 8 10.00 Fair CLR 77 66.2 69% 79 29.87 0.0
30 00:35 S 7 10.00 Fair CLR 77 66.2 69% 79 29.87 0.0
30 00:15 S 9 10.00 Fair CLR 78.8 66.2 65% 81 29.87 0.0
29 23:55 S 9 10.00 Fair CLR 77 66.2 69% 79 29.87 0.0
29 23:35 S 7 10.00 Fair CLR 75.2 68 78% 76 29.87 0.0
29 22:55 S 7 10.00 Fair CLR 77 68 74% 79 29.87 0.0
29 22:35 S 8 10.00 Fair CLR 77 68 74% 79 29.86 0.0
29 22:15 S 7 10.00 Fair CLR 77 68 74% 79 29.86 0.0
29 21:55 S 7 10.00 Fair CLR 77 68 74% 79 29.86 0.0
29 21:35 S 8 10.00 Fair CLR 80.6 68 66% 83 29.86 0.0
29 21:15 S 9 10.00 Fair CLR 80.6 68 66% 83 29.85 0.0
29 20:55 S 7 10.00 Fair CLR 80.6 69.8 70% 84 29.84 0.0
29 20:35 S 7 10.00 Fair CLR 80.6 69.8 70% 84 29.84 0.0
29 20:15 S 8 10.00 Fair CLR 82.4 69.8 66% 86 29.83 0.0
29 19:55 S 8 10.00 Fair CLR 82.4 69.8 66% 86 29.83 0.0
29 19:35 S 8 10.00 Fair CLR 84.2 69.8 62% 88 29.84 0.0
29 19:15 S 8 10.00 Fair CLR 84.2 69.8 62% 88 29.84 0.0
29 18:55 S 7 10.00 Fair CLR 86 71.6 62% 92 29.84 0.0
29 18:35 S 10 10.00 Fair CLR 87.8 69.8 55% 93 29.84 0.0
29 18:15 S 10 G 17 10.00 Fair CLR 89.6 69.8 52% 95 29.85 0.0
29 17:55 S 9 10.00 Fair CLR 91.4 71.6 52% 99 29.85 0.0
29 17:35 S 12 10.00 Fair CLR 89.6 71.6 55% 96 29.85 0.0
29 17:15 S 14 10.00 Fair CLR 89.6 69.8 52% 95 29.85 0.0
29 16:55 S 12 10.00 Fair CLR 91.4 71.6 52% 99 29.86 0.0
29 16:35 S 15 10.00 Fair CLR 89.6 69.8 52% 95 29.86 0.0
29 16:15 S 16 10.00 Fair CLR 89.6 69.8 52% 95 29.87 0.0
29 15:55 S 9 10.00 Fair CLR 87.8 69.8 55% 93 29.88 0.0
29 15:35 S 10 10.00 Fair CLR 89.6 69.8 52% 95 29.88 0.0
29 15:15 S 9 10.00 Fair CLR 87.8 69.8 55% 93 29.88 0.0
29 14:55 S 13 G 21 10.00 Fair CLR 89.6 69.8 52% 95 29.88 0.0
29 14:35 S 12 10.00 Fair CLR 86 68 55% 89 29.89 0.0
29 14:15 S 15 G 22 10.00 Fair CLR 86 68 55% 89 29.9 0.0
29 13:55 S 14 G 23 10.00 Fair CLR 87.8 68 52% 91 29.91 0.0
29 13:35 S 13 G 20 10.00 Fair CLR 87.8 68 52% 91 29.92 0.0
29 13:15 S 15 10.00 A Few Clouds FEW100 86 66.2 52% 88 29.94 0.0
29 12:55 S 10 G 17 10.00 Partly Cloudy SCT100 84.2 66.2 55% 87 29.96 0.0
29 12:35 S 7 G 13 10.00 Mostly Cloudy BKN100 84.2 66.2 55% 87 29.96 0.0
29 12:15 S 8 G 15 10.00 A Few Clouds FEW100 82.4 64.4 55% 84 29.97 0.0
29 11:55 S 10 G 17 10.00 Fair CLR 82.4 64.4 55% 84 29.97 0.0
29 11:35 S 12 10.00 Fair CLR 84.2 64.4 51% 86 29.96 0.0
29 11:15 S 9 G 17 10.00 Fair CLR 84.2 66.2 55% 87 29.97 0.0
29 10:55 S 13 10.00 Fair CLR 82.4 64.4 55% 84 29.98 0.0
29 10:35 S 14 10.00 Fair CLR 80.6 64.4 58% 82 29.98 0.0
29 10:15 S 13 G 21 10.00 Fair CLR 78.8 62.6 58% 80 29.98 0.0
29 09:55 S 13 G 20 10.00 Fair CLR 75.2 62.6 65% 77 29.98 0.0
29 09:35 S 14 G 20 10.00 Fair CLR 73.4 62.6 69% 29.98 0.0
29 09:15 S 10 10.00 Fair CLR 71.6 62.6 73% 29.99 0.0
29 08:55 S 8 10.00 A Few Clouds FEW110 69.8 62.6 78% 30 0.0
29 08:35 S 7 10.00 Partly Cloudy SCT110 69.8 60.8 73% 30 0.0
29 08:15 S 9 10.00 Fair CLR 69.8 60.8 73% 29.99 0.0
29 07:55 S 9 10.00 Fair CLR 68 60.8 78% 30 0.0
29 07:35 S 8 10.00 Fair CLR 68 60.8 78% 30.01 0.0
29 07:15 S 6 10.00 Fair CLR 68 60.8 78% 30 0.0
29 06:55 S 7 10.00 Partly Cloudy SCT100 66.2 60.8 83% 30 0.0
29 06:35 S 6 10.00 Overcast OVC100 66.2 60.8 83% 30.01 0.0
29 06:15 S 6 10.00 Mostly Cloudy BKN100 66.2 60.8 83% 30.01 0.0
29 05:55 S 7 10.00 Mostly Cloudy BKN100 68 60.8 78% 30.02 0.0
29 05:35 S 5 10.00 Fair CLR 68 60.8 78% 30.02 0.0
29 05:15 S 7 G 13 10.00 Fair CLR 68 60.8 78% 30.02 0.0
29 04:55 S 9 10.00 Fair CLR 69.8 60.8 73% 30.01 0.0
29 04:35 S 9 10.00 Fair CLR 68 60.8 78% 30.02 0.0
29 04:15 S 8 10.00 Fair CLR 68 60.8 78% 30.02 0.0
29 03:55 S 7 10.00 Fair CLR 68 60.8 78% 30.03 0.0
29 03:35 S 6 10.00 Fair CLR 68 60.8 78% 30.03 0.0
29 03:15 S 7 10.00 Fair CLR 68 60.8 78% 30.04 0.0
29 02:55 S 6 10.00 Fair CLR 66.2 60.8 83% 30.04 0.0
29 02:15 S 6 10.00 Fair CLR 66.2 62.6 88% 30.04 0.0
29 01:55 S 8 10.00 Fair CLR 66.2 62.6 88% 30.04 0.0
29 01:35 S 7 10.00 Fair CLR 66.2 60.8 83% 30.05 0.0
29 01:15 S 5 10.00 Fair CLR 64.4 62.6 94% 30.05 0.0
29 00:55 Calm 10.00 A Few Clouds FEW042 64.4 62.6 94% 30.05 0.0
29 00:35 Calm 10.00 Fair CLR 64.4 62.6 94% 30.05 0.0
29 00:15 SW 6 10.00 Fair CLR 68 62.6 83% 30.06 0.0
28 23:55 S 6 10.00 Fair CLR 68 62.6 83% 30.05 0.0
28 23:35 Calm 10.00 Fair CLR 66.2 62.6 88% 30.05 0.0
28 23:15 SW 3 10.00 Fair CLR 66.2 62.6 88% 30.06 0.0
28 22:55 Calm 10.00 Fair CLR 66.2 62.6 88% 30.06 0.0
28 22:35 Calm 10.00 Fair CLR 68 62.6 83% 30.06 0.0
28 22:15 Calm 10.00 Fair CLR 69.8 62.6 78% 30.06 0.0
28 21:55 Calm 10.00 Fair CLR 69.8 62.6 78% 30.07 0.0
28 21:35 Vrbl 3 10.00 Fair CLR 69.8 62.6 78% 30.06 0.0
28 21:15 Calm 10.00 Fair CLR 69.8 64.4 83% 30.06 0.0
28 20:55 SW 3 10.00 Fair CLR 69.8 64.4 83% 30.05 0.0
28 20:35 Calm 10.00 Fair CLR 71.6 64.4 78% 30.05 0.0
28 20:15 Calm 10.00 Fair CLR 75.2 64.4 69% 77 30.05 0.0
28 19:55 S 3 10.00 Fair CLR 77 64.4 65% 79 30.05 0.0
28 19:35 Calm 10.00 Fair CLR 78.8 66.2 65% 81 30.05 0.0
28 19:15 S 5 10.00 Fair CLR 80.6 66.2 62% 83 30.05 0.0
28 18:55 S 5 10.00 Fair CLR 82.4 66.2 58% 85 30.06 0.0
28 18:35 S 5 8.00 Fair CLR 82.4 66.2 58% 85 30.07 0.0
28 18:15 S 6 10.00 Fair CLR 80.6 64.4 58% 82 30.07 0.0
28 17:55 S 8 10.00 Fair CLR 86 64.4 49% 87 30.07 0.0
28 17:35 S 12 10.00 Fair CLR 86 62.6 46% 87 30.07 0.0
28 17:15 S 10 10.00 Fair CLR 86 62.6 46% 87 30.07 0.0
28 16:55 Vrbl 7 G 16 10.00 Fair CLR 86 62.6 46% 87 30.08 0.0
28 16:35 S 8 10.00 Fair CLR 86 62.6 46% 87 30.08 0.0
28 16:15 S 14 10.00 Fair CLR 86 62.6 46% 87 30.09 0.0
28 15:55 SW 10 10.00 Fair CLR 86 62.6 46% 87 30.09 0.0
28 15:35 S 9 G 15 10.00 Fair CLR 86 62.6 46% 87 30.1 0.0
28 15:15 S 10 10.00 Fair CLR 86 62.6 46% 87 30.11 0.0
28 14:55 S 10 10.00 Fair CLR 87.8 62.6 43% 88 30.12 0.0
28 14:35 SW 9 G 15 10.00 Fair CLR 86 60.8 43% 86 30.12 0.0
28 14:15 S 9 G 16 9.00 Fair CLR 86 60.8 43% 86 30.13 0.0
28 13:55 S 9 G 17 10.00 Fair CLR 86 60.8 43% 86 30.13 0.0
28 13:35 S 10 10.00 Fair CLR 86 60.8 43% 86 30.14 0.0
28 13:15 S 10 G 16 10.00 Fair CLR 86 60.8 43% 86 30.15 0.0
28 12:55 S 10 10.00 Fair CLR 84.2 62.6 48% 85 30.16 0.0
28 12:35 S 12 G 20 10.00 Fair CLR 84.2 60.8 45% 84 30.17 0.0
28 12:15 S 13 10.00 Fair CLR 82.4 60.8 48% 83 30.16 0.0
28 11:55 S 10 10.00 Fair CLR 82.4 62.6 51% 83 30.17 0.0
28 11:35 S 9 10.00 Fair CLR 82.4 62.6 51% 83 30.17 0.0
28 11:15 S 12 10.00 Fair CLR 80.6 62.6 54% 82 30.18 0.0
28 10:55 S 8 G 14 10.00 Fair CLR 78.8 64.4 61% 81 30.18 0.0
28 10:35 S 7 10.00 Fair CLR 78.8 64.4 61% 81 30.18 0.0
28 10:15 S 6 10.00 Fair CLR 75.2 64.4 69% 77 30.17 0.0
28 09:55 SW 7 10.00 Fair CLR 75.2 64.4 69% 77 30.17 0.0
28 09:35 SW 8 10.00 A Few Clouds FEW120 73.4 64.4 74% 30.18 0.0
28 09:15 Vrbl 5 10.00 Partly Cloudy SCT120 71.6 64.4 78% 30.18 0.0
28 08:55 Calm 10.00 A Few Clouds FEW120 69.8 64.4 83% 30.18 0.0
28 08:35 Calm 10.00 Mostly Cloudy BKN120 68 64.4 88% 30.18 0.0
28 08:15 Calm 10.00 Mostly Cloudy SCT090 BKN120 64.4 62.6 94% 30.18 0.0
28 07:55 Calm 10.00 Mostly Cloudy BKN090 BKN110 62.6 62.6 100% 30.17 0.0
28 07:35 Calm 9.00 Mostly Cloudy SCT090 BKN120 60.8 60.8 100% 30.17 0.0
28 07:15 Calm 8.00 A Few Clouds FEW090 FEW120 57.2 57.2 100% 30.17 0.0
28 06:55 Calm 8.00 A Few Clouds FEW090 57.2 57.2 100% 30.17 0.0
28 06:15 NE 5 10.00 A Few Clouds FEW090 59 59 100% 30.16 0.0
28 05:55 NE 5 9.00 Partly Cloudy SCT090 59 59 100% 30.15 0.0
28 05:35 NE 3 8.00 Partly Cloudy SCT090 59 59 100% 30.15 0.0
28 05:15 NW 3 2.00 Fog/Mist FEW085 57.2 57.2 100% 30.14 0.0
28 04:35 Calm 0.50 Fog/Mist VV005 57.2 57.2 100% 30.13 0.0
28 04:15 Calm 7.00 Fair CLR 57.2 57.2 100% 30.13 0.0
28 03:55 Calm 4.00 Fog/Mist CLR 57.2 57.2 100% 30.13 0.0
28 03:35 Calm 8.00 Fair CLR 57.2 57.2 100% 30.13 0.0
28 03:15 S 3 4.00 Fog/Mist FEW110 57.2 57.2 100% 30.13 0.0
28 02:55 Calm 1.25 Fog/Mist CLR 57.2 57.2 100% 30.14 0.0
28 02:35 Calm 5.00 Fog/Mist CLR 57.2 57.2 100% 30.13 0.0
28 02:15 Calm 9.00 Fair CLR 57.2 57.2 100% 30.13 0.0
28 01:55 Calm 0.25 Fog VV002 57.2 57.2 100% 30.13 0.0
28 01:35 Calm 9.00 Fair CLR 59 59 100% 30.13 0.0
28 01:15 Calm 10.00 Fair CLR 59 59 100% 30.12 0.0
28 00:55 Calm 9.00 Fair CLR 59 59 100% 30.12 0.0
28 00:35 Calm 7.00 Fair CLR 59 59 100% 30.13 0.0
28 00:15 Calm 7.00 Fair CLR 60.8 60.8 100% 30.12 0.0
27 23:55 Calm 9.00 Fair CLR 59 59 100% 30.12 0.0
27 23:35 Calm 10.00 Fair CLR 60.8 60.8 100% 30.12 0.0
27 23:15 SW 3 1.50 Fog/Mist CLR 60.8 60.8 100% 30.12 0.0
27 22:55 Calm 10.00 Fair CLR 60.8 60.8 100% 30.11 0.0
27 22:35 Calm 4.00 Fog/Mist CLR 62.6 62.6 100% 30.12 0.0
27 22:15 Calm 10.00 Fair CLR 62.6 62.6 100% 30.12 0.0
27 21:55 Calm 10.00 Fair CLR 62.6 62.6 100% 30.11 0.0
27 21:35 Calm 9.00 Fair CLR 64.4 62.6 94% 30.11 0.0
27 21:15 Calm 9.00 Fair CLR 64.4 62.6 94% 30.1 0.0
27 20:55 Calm 10.00 Fair CLR 66.2 64.4 94% 30.09 0.0
27 20:35 Calm 10.00 Fair CLR 66.2 64.4 94% 30.09 0.0
27 20:15 Calm 10.00 Fair CLR 68 66.2 94% 30.08 0.0
Date Time (cdt) Wind (mph) Vis. (mi.) Weather Sky Cond. Air Dwpt Max. Min. Relative Humidity Wind Chill (°F) Heat Index (°F) altimeter (in) sea level (mb) 1 hr 3 hr 6 hr
6 hour
Temperature (ºF) Pressure Precipitation (in)